Time;durP1;ratioP1;P1;durP2;ratioP2;P2;SDS_P1;SDS_P2;PMS_P1;PMS_P2;Temp;Humidity;BMP_temperature;BMP_pressure;BME280_temperature;BME280_humidity;BME280_pressure;Samples;Min_cycle;Max_cycle;Signal;HPM_P1;HPM_P2
2022/08/05 00:01:12;;;;;;;5.70;5.20;;;;;;;;;;5090976;28;20447;-76
2022/08/05 00:03:40;;;;;;;5.70;5.20;;;;;;;;;;5090294;28;20965;-75
2022/08/05 00:06:08;;;;;;;5.53;5.13;;;;;;;;;;5090433;28;20482;-75
2022/08/05 00:08:35;;;;;;;6.00;5.60;;;;;;;;;;5090184;28;20448;-74
2022/08/05 00:11:03;;;;;;;6.17;5.77;;;;;;;;;;5091035;28;20444;-75
2022/08/05 00:13:31;;;;;;;5.43;4.93;;;;;;;;;;5090554;28;20444;-75
2022/08/05 00:15:59;;;;;;;6.37;5.40;;;;;;;;;;5090715;28;20531;-75
2022/08/05 00:18:26;;;;;;;5.30;4.90;;;;;;;;;;5092094;28;20866;-75
2022/08/05 00:20:54;;;;;;;6.10;4.77;;;;;;;;;;5091956;28;20444;-74
2022/08/05 00:23:22;;;;;;;5.80;5.30;;;;;;;;;;5091213;28;20451;-77
2022/08/05 00:25:49;;;;;;;6.30;5.80;;;;;;;;;;5090965;28;20574;-76
2022/08/05 00:28:16;;;;;;;5.93;5.50;;;;;;;;;;5090987;28;20493;-77
2022/08/05 00:30:43;;;;;;;6.13;5.73;;;;;;;;;;5091188;28;20451;-75
2022/08/05 00:33:10;;;;;;;5.33;4.93;;;;;;;;;;5090141;28;20520;-75
2022/08/05 00:35:37;;;;;;;6.03;5.50;;;;;;;;;;5090432;28;20460;-75
2022/08/05 00:38:06;;;;;;;5.70;5.30;;;;;;;;;;5090643;28;20447;-75
2022/08/05 00:40:33;;;;;;;6.50;6.00;;;;;;;;;;5090178;28;20497;-75
2022/08/05 00:43:02;;;;;;;6.10;5.60;;;;;;;;;;5089854;28;20530;-76
2022/08/05 00:45:29;;;;;;;6.33;5.83;;;;;;;;;;5089961;28;20575;-76
2022/08/05 00:47:56;;;;;;;6.00;5.40;;;;;;;;;;5090129;28;20493;-75
2022/08/05 00:50:23;;;;;;;6.27;5.40;;;;;;;;;;5090205;28;20451;-75
2022/08/05 00:52:50;;;;;;;6.13;5.50;;;;;;;;;;5090021;28;20914;-75
2022/08/05 00:55:19;;;;;;;5.87;5.40;;;;;;;;;;5090122;28;20461;-76
2022/08/05 00:57:46;;;;;;;6.00;5.60;;;;;;;;;;5090073;28;20439;-76
2022/08/05 01:00:13;;;;;;;5.70;4.13;;;;;;;;;;5090211;28;20447;-75
2022/08/05 01:02:40;;;;;;;6.47;4.20;;;;;;;;;;5089860;28;20443;-75
2022/08/05 01:05:08;;;;;;;4.33;4.03;;;;;;;;;;5094295;28;20479;-74
2022/08/05 01:07:35;;;;;;;3.70;3.50;;;;;;;;;;5097160;28;20448;-76
2022/08/05 01:10:03;;;;;;;6.67;3.70;;;;;;;;;;5092490;28;20947;-75
2022/08/05 01:12:31;;;;;;;3.47;3.17;;;;;;;;;;5078976;28;20563;-74
2022/08/05 01:15:02;;;;;;;4.07;3.20;;;;;;;;;;5080220;28;21021;-75
2022/08/05 01:17:32;;;;;;;3.87;3.50;;;;;;;;;;5078201;28;20445;-75
2022/08/05 01:20:04;;;;;;;3.70;3.23;;;;;;;;;;5072903;28;20448;-75
2022/08/05 01:22:38;;;;;;;3.50;3.20;;;;;;;;;;5073309;28;20440;-75
2022/08/05 01:25:22;;;;;;;10.00;4.07;;;;;;;;;;5072774;28;20533;-76
2022/08/05 01:28:00;;;;;;;4.47;3.70;;;;;;;;;;5065682;28;20456;-74
2022/08/05 01:30:28;;;;;;;6.40;3.60;;;;;;;;;;5072994;28;20432;-75
2022/08/05 01:32:57;;;;;;;4.90;3.97;;;;;;;;;;5072681;28;20470;-74
2022/08/05 01:35:27;;;;;;;11.70;3.70;;;;;;;;;;5072912;28;20887;-74
2022/08/05 01:37:55;;;;;;;4.90;3.93;;;;;;;;;;5072616;28;20928;-74
2022/08/05 01:40:25;;;;;;;7.47;3.33;;;;;;;;;;5072278;28;20441;-74
2022/08/05 01:42:53;;;;;;;4.23;3.73;;;;;;;;;;5072274;28;20944;-75
2022/08/05 01:45:21;;;;;;;4.10;3.73;;;;;;;;;;5072412;28;20557;-75
2022/08/05 01:47:49;;;;;;;3.90;3.57;;;;;;;;;;5072749;28;20444;-75
2022/08/05 01:50:19;;;;;;;4.23;3.83;;;;;;;;;;5072815;28;20449;-75
2022/08/05 01:52:46;;;;;;;3.87;3.50;;;;;;;;;;5072296;28;20479;-74
2022/08/05 01:55:14;;;;;;;11.80;4.20;;;;;;;;;;5072581;28;20863;-75
2022/08/05 01:57:43;;;;;;;4.73;4.13;;;;;;;;;;5072636;28;20441;-75
2022/08/05 02:00:13;;;;;;;3.80;3.40;;;;;;;;;;5072424;28;20504;-75
2022/08/05 02:02:42;;;;;;;4.33;3.30;;;;;;;;;;5077554;28;20498;-74
2022/08/05 02:05:11;;;;;;;3.77;3.40;;;;;;;;;;5082845;28;20912;-75
2022/08/05 02:07:38;;;;;;;4.00;3.70;;;;;;;;;;5072302;28;20476;-74
2022/08/05 02:10:06;;;;;;;6.87;3.70;;;;;;;;;;5079588;28;20497;-74
2022/08/05 02:12:35;;;;;;;5.03;3.60;;;;;;;;;;5092748;28;20444;-75
2022/08/05 02:15:06;;;;;;;6.00;3.53;;;;;;;;;;5094687;28;20448;-75
2022/08/05 02:17:36;;;;;;;5.50;3.60;;;;;;;;;;5094185;28;20587;-75
2022/08/05 02:20:07;;;;;;;6.90;3.80;;;;;;;;;;5092235;28;20440;-74
2022/08/05 02:22:37;;;;;;;5.47;3.50;;;;;;;;;;5092174;28;20444;-76
2022/08/05 02:25:06;;;;;;;9.97;4.10;;;;;;;;;;5091842;28;20491;-75
2022/08/05 02:27:35;;;;;;;4.77;3.87;;;;;;;;;;5092061;28;20444;-75
2022/08/05 02:30:02;;;;;;;4.40;3.03;;;;;;;;;;5091860;28;21013;-75
2022/08/05 02:32:30;;;;;;;12.60;3.80;;;;;;;;;;5091700;28;20443;-74
2022/08/05 02:35:00;;;;;;;5.30;3.33;;;;;;;;;;5092303;28;20830;-74
2022/08/05 02:37:28;;;;;;;6.73;3.70;;;;;;;;;;5094386;28;20439;-76
2022/08/05 02:39:55;;;;;;;10.77;4.00;;;;;;;;;;5094160;28;20452;-75
2022/08/05 02:42:23;;;;;;;12.77;3.43;;;;;;;;;;5092000;28;20447;-76
2022/08/05 02:44:50;;;;;;;4.13;3.37;;;;;;;;;;5091355;28;20571;-75
2022/08/05 02:47:17;;;;;;;9.13;4.00;;;;;;;;;;5091876;28;20448;-75
2022/08/05 02:49:46;;;;;;;5.73;3.67;;;;;;;;;;5091670;28;20496;-74
2022/08/05 02:52:17;;;;;;;4.33;3.77;;;;;;;;;;5091740;28;20443;-75
2022/08/05 02:54:44;;;;;;;7.10;4.17;;;;;;;;;;5091421;28;20513;-75
2022/08/05 02:57:13;;;;;;;7.47;4.20;;;;;;;;;;5091633;28;20444;-75
2022/08/05 02:59:41;;;;;;;6.80;4.07;;;;;;;;;;5091649;28;20448;-74
2022/08/05 03:02:08;;;;;;;6.83;4.30;;;;;;;;;;5091813;28;20436;-74
2022/08/05 03:04:36;;;;;;;7.13;3.80;;;;;;;;;;5091218;28;20480;-74
2022/08/05 03:07:03;;;;;;;6.87;4.00;;;;;;;;;;5091386;28;20498;-74
2022/08/05 03:09:31;;;;;;;13.43;4.27;;;;;;;;;;5088759;28;20440;-75
2022/08/05 03:11:59;;;;;;;5.00;3.87;;;;;;;;;;5070916;28;20488;-74
2022/08/05 03:14:26;;;;;;;5.60;3.70;;;;;;;;;;5070710;28;20523;-74
2022/08/05 03:16:53;;;;;;;6.40;3.93;;;;;;;;;;5071037;28;20443;-74
2022/08/05 03:19:20;;;;;;;8.93;4.07;;;;;;;;;;5071092;28;20440;-75
2022/08/05 03:21:47;;;;;;;6.43;4.37;;;;;;;;;;5070709;28;20444;-75
2022/08/05 03:24:14;;;;;;;4.33;3.73;;;;;;;;;;5070395;28;20514;-75
2022/08/05 03:26:43;;;;;;;8.47;4.23;;;;;;;;;;5069716;28;20556;-75
2022/08/05 03:29:10;;;;;;;6.60;4.13;;;;;;;;;;5070964;28;20452;-74
2022/08/05 03:31:37;;;;;;;5.67;4.17;;;;;;;;;;5070852;28;20437;-74
2022/08/05 03:34:04;;;;;;;4.10;3.80;;;;;;;;;;5070470;28;20533;-73
2022/08/05 03:36:32;;;;;;;6.70;4.77;;;;;;;;;;5070458;28;20863;-74
2022/08/05 03:38:59;;;;;;;5.73;4.20;;;;;;;;;;5070361;28;20507;-74
2022/08/05 03:41:26;;;;;;;5.70;4.03;;;;;;;;;;5070281;28;20944;-73
2022/08/05 03:43:54;;;;;;;5.10;4.00;;;;;;;;;;5070130;28;20492;-74
2022/08/05 03:46:21;;;;;;;5.23;4.57;;;;;;;;;;5070499;28;20484;-75
2022/08/05 03:48:48;;;;;;;4.20;3.90;;;;;;;;;;5070303;28;20449;-76
2022/08/05 03:51:18;;;;;;;6.07;4.20;;;;;;;;;;5070422;28;20440;-75
2022/08/05 03:53:53;;;;;;;6.63;4.90;;;;;;;;;;5070110;28;20453;-75
2022/08/05 03:56:25;;;;;;;4.67;4.27;;;;;;;;;;5070577;28;20502;-75
2022/08/05 03:58:53;;;;;;;7.20;4.33;;;;;;;;;;5070254;28;20619;-74
2022/08/05 04:01:23;;;;;;;9.83;4.90;;;;;;;;;;5070052;28;21044;-74
2022/08/05 04:03:51;;;;;;;9.20;4.47;;;;;;;;;;5069583;28;20515;-74
2022/08/05 04:06:18;;;;;;;8.27;4.80;;;;;;;;;;5069926;28;20511;-75
2022/08/05 04:08:46;;;;;;;7.00;4.47;;;;;;;;;;5070191;28;20452;-75
2022/08/05 04:11:13;;;;;;;8.60;4.70;;;;;;;;;;5087527;28;20943;-74
2022/08/05 04:13:40;;;;;;;5.67;4.20;;;;;;;;;;5090147;28;20513;-75
2022/08/05 04:16:08;;;;;;;4.90;4.50;;;;;;;;;;5090211;28;20455;-74
2022/08/05 04:18:36;;;;;;;6.60;4.43;;;;;;;;;;5090162;28;20466;-74
2022/08/05 04:21:04;;;;;;;4.60;4.20;;;;;;;;;;5090546;28;20518;-75
2022/08/05 04:23:31;;;;;;;9.50;4.80;;;;;;;;;;5089848;28;21013;-74
2022/08/05 04:25:58;;;;;;;6.33;4.43;;;;;;;;;;5090363;28;20525;-75
2022/08/05 04:28:25;;;;;;;4.70;4.30;;;;;;;;;;5090305;28;20493;-74
2022/08/05 04:30:52;;;;;;;7.50;4.70;;;;;;;;;;5090239;28;20489;-75
2022/08/05 04:33:19;;;;;;;9.57;4.90;;;;;;;;;;5087379;28;20866;-74
2022/08/05 04:35:47;;;;;;;10.00;4.80;;;;;;;;;;5090235;28;20467;-75
2022/08/05 04:38:14;;;;;;;5.03;4.60;;;;;;;;;;5093095;28;20440;-74
2022/08/05 04:40:41;;;;;;;5.57;4.07;;;;;;;;;;5094392;28;20451;-75
2022/08/05 04:43:09;;;;;;;5.10;4.10;;;;;;;;;;5093889;28;20439;-74
2022/08/05 04:45:36;;;;;;;6.03;4.80;;;;;;;;;;5093514;28;20464;-74
2022/08/05 04:48:04;;;;;;;6.97;4.97;;;;;;;;;;5094214;28;20912;-74
2022/08/05 04:50:31;;;;;;;4.67;4.20;;;;;;;;;;5093977;28;20565;-75
2022/08/05 04:52:59;;;;;;;7.10;4.63;;;;;;;;;;5093661;28;20443;-74
2022/08/05 04:55:27;;;;;;;9.30;4.90;;;;;;;;;;5093964;28;20512;-74
2022/08/05 04:57:54;;;;;;;4.80;4.23;;;;;;;;;;5093842;28;20963;-75
2022/08/05 05:00:21;;;;;;;6.20;4.63;;;;;;;;;;5093612;28;20492;-76
2022/08/05 05:02:48;;;;;;;4.57;4.17;;;;;;;;;;5093686;28;21127;-75
2022/08/05 05:05:16;;;;;;;5.30;4.80;;;;;;;;;;5093756;28;20467;-75
2022/08/05 05:07:43;;;;;;;4.80;4.40;;;;;;;;;;5093718;28;20471;-74
2022/08/05 05:10:11;;;;;;;10.83;5.23;;;;;;;;;;5093766;28;20440;-74
2022/08/05 05:12:38;;;;;;;6.67;4.93;;;;;;;;;;5093523;28;20489;-75
2022/08/05 05:15:06;;;;;;;5.20;4.70;;;;;;;;;;5093771;28;20460;-74
2022/08/05 05:17:37;;;;;;;7.67;5.10;;;;;;;;;;5105572;28;20428;-75
2022/08/05 05:20:05;;;;;;;7.57;5.23;;;;;;;;;;5104423;28;20482;-74
2022/08/05 05:22:32;;;;;;;5.33;4.67;;;;;;;;;;5104384;28;20447;-73
2022/08/05 05:24:59;;;;;;;5.80;5.20;;;;;;;;;;5108037;28;20506;-75
2022/08/05 05:27:28;;;;;;;6.13;5.60;;;;;;;;;;5106402;28;20888;-74
2022/08/05 05:29:55;;;;;;;8.03;5.27;;;;;;;;;;5106688;28;20789;-74
2022/08/05 05:32:22;;;;;;;12.20;5.20;;;;;;;;;;5104858;28;20489;-75
2022/08/05 05:34:49;;;;;;;6.80;5.60;;;;;;;;;;5102387;28;20485;-75
2022/08/05 05:37:16;;;;;;;5.60;5.10;;;;;;;;;;5093559;28;20496;-75
2022/08/05 05:39:43;;;;;;;6.60;5.10;;;;;;;;;;5093395;28;20500;-75
2022/08/05 05:42:10;;;;;;;7.90;5.23;;;;;;;;;;5093431;28;20466;-76
2022/08/05 05:44:39;;;;;;;5.60;5.10;;;;;;;;;;5093094;28;20498;-77
2022/08/05 05:47:06;;;;;;;7.23;5.80;;;;;;;;;;5101867;28;21018;-76
2022/08/05 05:49:33;;;;;;;6.50;5.37;;;;;;;;;;5104677;28;20511;-74
2022/08/05 05:52:00;;;;;;;11.23;5.70;;;;;;;;;;5096420;28;20439;-77
2022/08/05 05:54:27;;;;;;;6.03;5.43;;;;;;;;;;5093349;28;20470;-76
2022/08/05 05:56:54;;;;;;;7.80;5.80;;;;;;;;;;5093325;28;20443;-75
2022/08/05 05:59:21;;;;;;;6.30;5.67;;;;;;;;;;5093463;28;20451;-77
2022/08/05 06:01:49;;;;;;;7.00;6.10;;;;;;;;;;5093287;28;20439;-77
2022/08/05 06:04:16;;;;;;;6.07;5.50;;;;;;;;;;5092621;28;20524;-75
2022/08/05 06:06:44;;;;;;;7.00;5.40;;;;;;;;;;5093024;28;20486;-75
2022/08/05 06:09:12;;;;;;;9.97;5.10;;;;;;;;;;5092755;28;20866;-74
2022/08/05 06:11:39;;;;;;;6.13;5.63;;;;;;;;;;5072856;28;20436;-77
2022/08/05 06:14:06;;;;;;;8.63;5.70;;;;;;;;;;5072575;28;20468;-76
2022/08/05 06:16:33;;;;;;;7.00;5.30;;;;;;;;;;5072592;28;20443;-74
2022/08/05 06:19:01;;;;;;;6.67;5.87;;;;;;;;;;5072229;28;21085;-74
2022/08/05 06:21:31;;;;;;;5.20;4.80;;;;;;;;;;5072196;28;20444;-74
2022/08/05 06:23:58;;;;;;;8.87;4.80;;;;;;;;;;5073640;28;20559;-74
2022/08/05 06:26:25;;;;;;;6.33;5.57;;;;;;;;;;5077477;28;20515;-75
2022/08/05 06:28:52;;;;;;;5.23;4.73;;;;;;;;;;5076109;28;20499;-76
2022/08/05 06:31:19;;;;;;;6.60;5.00;;;;;;;;;;5076198;28;20453;-75
2022/08/05 06:33:46;;;;;;;5.63;5.00;;;;;;;;;;5074636;28;20444;-75
2022/08/05 06:36:14;;;;;;;5.63;5.07;;;;;;;;;;5072136;28;20448;-77
2022/08/05 06:38:41;;;;;;;5.20;4.80;;;;;;;;;;5072189;28;20445;-75
2022/08/05 06:41:09;;;;;;;4.83;4.37;;;;;;;;;;5072308;28;20479;-75
2022/08/05 06:43:36;;;;;;;4.90;4.00;;;;;;;;;;5072161;28;20861;-76
2022/08/05 06:46:03;;;;;;;5.37;4.87;;;;;;;;;;5071904;28;20501;-74
2022/08/05 06:48:30;;;;;;;5.73;4.47;;;;;;;;;;5071703;28;20521;-76
2022/08/05 06:50:57;;;;;;;5.07;4.60;;;;;;;;;;5071664;28;20526;-74
2022/08/05 06:53:25;;;;;;;7.97;5.50;;;;;;;;;;5071822;28;21080;-75
2022/08/05 06:55:52;;;;;;;5.57;4.60;;;;;;;;;;5072085;28;20530;-76
2022/08/05 06:58:19;;;;;;;4.00;3.70;;;;;;;;;;5071367;28;20596;-76
2022/08/05 07:00:46;;;;;;;4.67;4.23;;;;;;;;;;5071565;28;20445;-75
2022/08/05 07:03:13;;;;;;;4.57;4.27;;;;;;;;;;5070737;28;20461;-77
2022/08/05 07:05:40;;;;;;;4.90;4.50;;;;;;;;;;5071828;28;20461;-76
2022/08/05 07:08:07;;;;;;;4.90;4.50;;;;;;;;;;5071490;28;21019;-77
2022/08/05 07:10:35;;;;;;;5.63;4.30;;;;;;;;;;5082696;28;20482;-76
2022/08/05 07:18:32;;;;;;;5.20;4.23;;;;;;;;;;5091571;28;20527;-75
2022/08/05 07:20:59;;;;;;;4.77;4.37;;;;;;;;;;5091781;28;20569;-77
2022/08/05 07:23:26;;;;;;;4.47;4.20;;;;;;;;;;5091278;28;20576;-76
2022/08/05 07:25:54;;;;;;;5.57;4.77;;;;;;;;;;5091019;28;20590;-76
2022/08/05 07:28:21;;;;;;;4.70;4.40;;;;;;;;;;5090733;28;20483;-76
2022/08/05 07:30:48;;;;;;;5.10;4.70;;;;;;;;;;5091120;28;20462;-75
2022/08/05 07:33:15;;;;;;;6.27;5.23;;;;;;;;;;5090743;28;20489;-76
2022/08/05 07:35:42;;;;;;;6.00;4.07;;;;;;;;;;5086135;28;20519;-75
2022/08/05 07:38:09;;;;;;;4.80;4.40;;;;;;;;;;5090868;28;20448;-76
2022/08/05 07:40:36;;;;;;;4.47;4.10;;;;;;;;;;5090988;28;20452;-74
2022/08/05 07:43:05;;;;;;;5.37;4.40;;;;;;;;;;5079968;28;20846;-76
2022/08/05 07:45:32;;;;;;;4.40;4.10;;;;;;;;;;5087541;28;20524;-75
2022/08/05 07:47:59;;;;;;;4.73;4.13;;;;;;;;;;5090664;28;20594;-75
2022/08/05 07:50:26;;;;;;;5.07;3.80;;;;;;;;;;5090793;28;20864;-75
2022/08/05 07:52:53;;;;;;;5.87;4.40;;;;;;;;;;5084583;28;20506;-76
2022/08/05 07:55:20;;;;;;;5.30;4.03;;;;;;;;;;5090308;28;20529;-75
2022/08/05 07:57:47;;;;;;;6.00;4.43;;;;;;;;;;5090476;28;20439;-76
2022/08/05 08:00:16;;;;;;;4.60;3.83;;;;;;;;;;5090582;28;20488;-75
2022/08/05 08:02:43;;;;;;;4.30;3.97;;;;;;;;;;5090398;28;20509;-77
2022/08/05 08:05:11;;;;;;;11.60;5.10;;;;;;;;;;5090699;28;20517;-75
2022/08/05 08:07:38;;;;;;;5.80;3.40;;;;;;;;;;5086628;28;20581;-76
2022/08/05 08:10:05;;;;;;;3.57;3.37;;;;;;;;;;5078379;28;20436;-75
2022/08/05 08:12:32;;;;;;;3.30;3.00;;;;;;;;;;5089031;28;20547;-76
2022/08/05 08:14:59;;;;;;;3.30;3.00;;;;;;;;;;5089570;28;20505;-75
2022/08/05 08:17:28;;;;;;;3.03;2.80;;;;;;;;;;5089624;28;20440;-76
2022/08/05 08:19:55;;;;;;;4.27;3.30;;;;;;;;;;5089850;28;20508;-76
2022/08/05 08:22:26;;;;;;;2.87;2.67;;;;;;;;;;5090097;28;20448;-76
2022/08/05 08:24:53;;;;;;;2.93;2.73;;;;;;;;;;5090197;28;20463;-76
2022/08/05 08:27:20;;;;;;;2.80;2.60;;;;;;;;;;5090321;28;20480;-75
2022/08/05 08:29:47;;;;;;;2.90;2.50;;;;;;;;;;5089727;28;20783;-75
2022/08/05 08:32:14;;;;;;;3.50;3.00;;;;;;;;;;5090179;28;20443;-75
2022/08/05 08:34:42;;;;;;;3.20;2.90;;;;;;;;;;5089956;28;20486;-74
2022/08/05 08:37:09;;;;;;;2.53;2.33;;;;;;;;;;5093180;28;20489;-76
2022/08/05 08:39:36;;;;;;;3.57;2.50;;;;;;;;;;5091951;28;20960;-75
2022/08/05 08:42:04;;;;;;;3.23;3.03;;;;;;;;;;5090900;28;20496;-74
2022/08/05 08:44:33;;;;;;;3.03;2.70;;;;;;;;;;5086304;28;20512;-75
2022/08/05 08:47:00;;;;;;;4.17;2.50;;;;;;;;;;5089522;28;20486;-76
2022/08/05 08:49:27;;;;;;;3.23;2.50;;;;;;;;;;5090072;28;20864;-75
2022/08/05 08:51:59;;;;;;;3.17;2.97;;;;;;;;;;5090230;28;20535;-75
2022/08/05 08:54:26;;;;;;;2.53;2.43;;;;;;;;;;5089666;28;20509;-75
2022/08/05 08:56:53;;;;;;;2.80;2.60;;;;;;;;;;5090071;28;20521;-75
2022/08/05 08:59:20;;;;;;;2.87;2.67;;;;;;;;;;5092643;28;20858;-75
2022/08/05 09:01:48;;;;;;;2.60;2.40;;;;;;;;;;5092697;28;20553;-76
2022/08/05 09:04:16;;;;;;;2.50;2.30;;;;;;;;;;5090540;28;20523;-75
2022/08/05 09:06:43;;;;;;;2.60;2.40;;;;;;;;;;5090192;28;20447;-76
2022/08/05 09:09:11;;;;;;;2.73;2.53;;;;;;;;;;5089702;28;20483;-76
2022/08/05 09:11:38;;;;;;;2.63;2.43;;;;;;;;;;5089573;28;20985;-75
2022/08/05 09:14:05;;;;;;;2.60;2.40;;;;;;;;;;5089590;28;20463;-75
2022/08/05 09:16:32;;;;;;;2.30;2.20;;;;;;;;;;5089800;28;20531;-75
2022/08/05 09:18:59;;;;;;;3.10;2.13;;;;;;;;;;5090024;28;20485;-76
2022/08/05 09:21:28;;;;;;;3.87;2.40;;;;;;;;;;5089593;28;20444;-75
2022/08/05 09:24:03;;;;;;;2.30;2.20;;;;;;;;;;5090131;28;20479;-76
2022/08/05 09:26:31;;;;;;;2.50;2.40;;;;;;;;;;5093455;28;20879;-76
2022/08/05 09:29:00;;;;;;;2.40;2.20;;;;;;;;;;5093397;28;20475;-76
2022/08/05 09:31:27;;;;;;;2.00;1.90;;;;;;;;;;5094158;28;20451;-76
2022/08/05 09:33:55;;;;;;;3.00;2.70;;;;;;;;;;5092969;28;20463;-75
2022/08/05 09:36:22;;;;;;;2.77;2.60;;;;;;;;;;5093900;28;20458;-76
2022/08/05 09:38:56;;;;;;;3.07;2.87;;;;;;;;;;5093612;28;20452;-76
2022/08/05 09:41:23;;;;;;;2.47;2.33;;;;;;;;;;5092931;28;20448;-75
2022/08/05 09:43:52;;;;;;;2.30;2.10;;;;;;;;;;5092351;28;20486;-76
2022/08/05 09:46:26;;;;;;;2.50;2.40;;;;;;;;;;5092052;28;20796;-75
2022/08/05 09:48:53;;;;;;;3.63;2.40;;;;;;;;;;5092133;28;20491;-76
2022/08/05 09:51:31;;;;;;;3.40;2.20;;;;;;;;;;5092120;28;20451;-75
2022/08/05 09:54:00;;;;;;;2.30;2.20;;;;;;;;;;5092264;28;20831;-76
2022/08/05 09:56:28;;;;;;;3.10;2.40;;;;;;;;;;5092506;28;20452;-76
2022/08/05 09:59:01;;;;;;;2.53;2.13;;;;;;;;;;5092249;28;20471;-76
2022/08/05 10:01:28;;;;;;;2.20;2.10;;;;;;;;;;5091932;28;21076;-77
2022/08/05 10:03:58;;;;;;;2.67;2.07;;;;;;;;;;5091153;28;20692;-75
2022/08/05 10:06:26;;;;;;;2.33;2.13;;;;;;;;;;5091819;28;20477;-76
2022/08/05 10:08:53;;;;;;;2.50;2.30;;;;;;;;;;5091213;28;21095;-77
2022/08/05 10:11:20;;;;;;;5.17;2.50;;;;;;;;;;5073612;28;20441;-75
2022/08/05 10:13:47;;;;;;;2.10;2.00;;;;;;;;;;5071068;28;20502;-75
2022/08/05 10:16:32;;;;;;;2.67;2.23;;;;;;;;;;5071181;28;20450;-75
2022/08/05 10:19:00;;;;;;;2.37;2.17;;;;;;;;;;5071102;28;20948;-76
2022/08/05 10:21:27;;;;;;;4.03;2.60;;;;;;;;;;5071442;28;20448;-76
2022/08/05 10:23:55;;;;;;;2.60;2.33;;;;;;;;;;5070718;28;20551;-76
2022/08/05 10:26:22;;;;;;;2.43;2.23;;;;;;;;;;5071035;28;20452;-76
2022/08/05 10:28:49;;;;;;;2.50;2.37;;;;;;;;;;5071069;28;20480;-76
2022/08/05 10:31:17;;;;;;;2.17;2.03;;;;;;;;;;5071118;28;20452;-81
2022/08/05 10:33:46;;;;;;;2.47;2.33;;;;;;;;;;5071339;28;20449;-77
2022/08/05 10:36:26;;;;;;;7.13;2.23;;;;;;;;;;5070492;28;20453;-76
2022/08/05 10:38:55;;;;;;;2.30;2.10;;;;;;;;;;5070871;28;20445;-76
2022/08/05 10:41:27;;;;;;;3.73;1.97;;;;;;;;;;5070602;28;20440;-75
2022/08/05 10:43:58;;;;;;;2.03;1.93;;;;;;;;;;5070036;28;20523;-76
2022/08/05 10:46:25;;;;;;;2.93;2.30;;;;;;;;;;5070657;28;20566;-76
2022/08/05 10:48:57;;;;;;;2.20;2.10;;;;;;;;;;5070279;28;20485;-75
2022/08/05 10:51:24;;;;;;;2.00;1.90;;;;;;;;;;5070681;28;20524;-75
2022/08/05 10:53:55;;;;;;;1.90;1.80;;;;;;;;;;5070219;28;21407;-75
2022/08/05 10:56:23;;;;;;;2.63;2.43;;;;;;;;;;5070743;28;20478;-76
2022/08/05 10:59:03;;;;;;;2.80;2.33;;;;;;;;;;5070954;28;20503;-76
2022/08/05 11:01:30;;;;;;;2.40;2.20;;;;;;;;;;5070914;28;20994;-77
2022/08/05 11:04:02;;;;;;;2.37;2.27;;;;;;;;;;5070623;28;20522;-76
2022/08/05 11:06:29;;;;;;;2.60;2.40;;;;;;;;;;5071513;28;20444;-75
2022/08/05 11:09:18;;;;;;;2.83;2.63;;;;;;;;;;5071025;28;20469;-75
2022/08/05 11:11:46;;;;;;;2.70;2.50;;;;;;;;;;5071212;28;20562;-76
2022/08/05 11:14:13;;;;;;;2.97;2.30;;;;;;;;;;5070726;28;20464;-74
2022/08/05 11:16:40;;;;;;;4.70;2.87;;;;;;;;;;5071088;28;20490;-75
2022/08/05 11:19:28;;;;;;;2.23;2.13;;;;;;;;;;5071343;28;20441;-75
2022/08/05 11:21:56;;;;;;;2.37;2.17;;;;;;;;;;5071375;28;20448;-75
2022/08/05 11:24:23;;;;;;;2.53;2.43;;;;;;;;;;5071000;28;20472;-75
2022/08/05 11:26:51;;;;;;;2.87;2.67;;;;;;;;;;5071659;28;20516;-76
2022/08/05 11:29:39;;;;;;;2.37;2.27;;;;;;;;;;5070920;28;20535;-76
2022/08/05 11:32:25;;;;;;;2.40;2.20;;;;;;;;;;5071247;28;20501;-77
2022/08/05 11:34:53;;;;;;;2.03;1.83;;;;;;;;;;5072491;28;21006;-76
2022/08/05 11:37:42;;;;;;;2.30;2.20;;;;;;;;;;5085733;28;20440;-75
2022/08/05 11:40:09;;;;;;;3.30;2.23;;;;;;;;;;5085591;28;20447;-77
2022/08/05 11:42:41;;;;;;;2.13;2.03;;;;;;;;;;5096559;28;20522;-77
2022/08/05 11:45:09;;;;;;;2.73;2.53;;;;;;;;;;5094227;28;20542;-76
2022/08/05 11:47:37;;;;;;;2.43;2.23;;;;;;;;;;5093187;28;20517;-75
2022/08/05 11:50:06;;;;;;;3.97;1.90;;;;;;;;;;5092252;28;20778;-76
2022/08/05 11:52:33;;;;;;;2.27;2.07;;;;;;;;;;5093303;28;20805;-76
2022/08/05 11:55:00;;;;;;;3.90;2.30;;;;;;;;;;5090405;28;20525;-75
2022/08/05 11:57:31;;;;;;;2.70;2.50;;;;;;;;;;5090663;28;20447;-76
2022/08/05 11:59:58;;;;;;;2.30;2.20;;;;;;;;;;5089996;28;20515;-75
2022/08/05 12:02:26;;;;;;;2.47;2.30;;;;;;;;;;5090734;28;20443;-75
2022/08/05 12:04:53;;;;;;;2.47;2.23;;;;;;;;;;5089909;28;20989;-75
2022/08/05 12:07:22;;;;;;;2.33;2.13;;;;;;;;;;5089962;28;20446;-76
2022/08/05 12:09:53;;;;;;;2.00;1.90;;;;;;;;;;5091314;28;20472;-75
2022/08/05 12:12:23;;;;;;;2.33;2.13;;;;;;;;;;5091393;28;20943;-75
2022/08/05 12:14:50;;;;;;;2.03;1.93;;;;;;;;;;5091623;28;20463;-76
2022/08/05 12:17:18;;;;;;;2.83;2.63;;;;;;;;;;5090357;28;20749;-75
2022/08/05 12:19:45;;;;;;;3.07;2.40;;;;;;;;;;5089769;28;20466;-75
2022/08/05 12:22:13;;;;;;;2.20;2.10;;;;;;;;;;5089527;28;20447;-74
2022/08/05 12:24:42;;;;;;;2.47;2.27;;;;;;;;;;5089568;28;20471;-75
2022/08/05 12:27:09;;;;;;;4.77;2.80;;;;;;;;;;5089915;28;20546;-76
2022/08/05 12:29:36;;;;;;;2.17;1.97;;;;;;;;;;5089763;28;20505;-75
2022/08/05 12:32:05;;;;;;;2.70;2.53;;;;;;;;;;5090060;28;20436;-77
2022/08/05 12:34:35;;;;;;;2.33;2.23;;;;;;;;;;5089755;28;20993;-75
2022/08/05 12:37:09;;;;;;;2.50;2.40;;;;;;;;;;5090042;28;20443;-76
2022/08/05 12:39:37;;;;;;;2.30;2.20;;;;;;;;;;5089843;28;20436;-74
2022/08/05 12:42:08;;;;;;;2.43;2.33;;;;;;;;;;5089890;28;20474;-76
2022/08/05 12:44:36;;;;;;;2.77;2.37;;;;;;;;;;5089455;28;20460;-76
2022/08/05 12:47:03;;;;;;;2.57;2.23;;;;;;;;;;5089560;28;20508;-76
2022/08/05 12:49:39;;;;;;;2.63;2.43;;;;;;;;;;5089739;28;20475;-75
2022/08/05 12:52:12;;;;;;;2.67;2.50;;;;;;;;;;5089891;28;20560;-76
2022/08/05 12:54:40;;;;;;;2.73;2.53;;;;;;;;;;5089648;28;20472;-76
2022/08/05 12:57:10;;;;;;;2.73;2.40;;;;;;;;;;5089602;28;20452;-76
2022/08/05 12:59:44;;;;;;;2.63;2.50;;;;;;;;;;5092939;28;20546;-75
2022/08/05 13:02:11;;;;;;;2.70;2.60;;;;;;;;;;5093963;28;20988;-77
2022/08/05 13:04:39;;;;;;;2.10;2.00;;;;;;;;;;5093081;28;20917;-76
2022/08/05 13:07:11;;;;;;;3.83;2.20;;;;;;;;;;5093427;28;20448;-75
2022/08/05 13:09:38;;;;;;;4.07;2.40;;;;;;;;;;5089587;28;20469;-75
2022/08/05 13:12:06;;;;;;;4.03;2.37;;;;;;;;;;5072993;28;20521;-75
2022/08/05 13:14:37;;;;;;;2.60;2.40;;;;;;;;;;5072774;28;20534;-76
2022/08/05 13:17:08;;;;;;;2.33;2.13;;;;;;;;;;5073207;28;20479;-75
2022/08/05 13:19:35;;;;;;;3.00;2.80;;;;;;;;;;5073326;28;20515;-76
2022/08/05 13:22:02;;;;;;;2.27;2.17;;;;;;;;;;5073058;28;20448;-76
2022/08/05 13:24:29;;;;;;;3.30;3.00;;;;;;;;;;5072428;28;20488;-75
2022/08/05 13:26:56;;;;;;;2.17;2.07;;;;;;;;;;5073073;28;20490;-75
2022/08/05 13:29:23;;;;;;;4.20;2.40;;;;;;;;;;5072947;28;20479;-75
2022/08/05 13:31:52;;;;;;;3.03;2.87;;;;;;;;;;5073088;28;20510;-77
2022/08/05 13:34:19;;;;;;;2.63;2.47;;;;;;;;;;5072618;28;20460;-75
2022/08/05 13:36:46;;;;;;;2.83;2.63;;;;;;;;;;5072887;28;20444;-75
2022/08/05 13:39:13;;;;;;;3.17;2.87;;;;;;;;;;5072408;28;20441;-75
2022/08/05 13:41:40;;;;;;;3.20;3.00;;;;;;;;;;5072567;28;20479;-75
2022/08/05 13:44:07;;;;;;;4.03;2.63;;;;;;;;;;5072037;28;20460;-75
2022/08/05 13:46:34;;;;;;;2.80;2.60;;;;;;;;;;5072359;28;21036;-75
2022/08/05 13:49:03;;;;;;;2.90;2.70;;;;;;;;;;5072194;28;20475;-75
2022/08/05 13:51:31;;;;;;;2.10;2.00;;;;;;;;;;5071992;28;20448;-75
2022/08/05 13:53:58;;;;;;;2.70;2.50;;;;;;;;;;5071773;28;20530;-75
2022/08/05 13:56:25;;;;;;;2.57;2.37;;;;;;;;;;5072942;28;20444;-75
2022/08/05 13:58:52;;;;;;;2.97;2.77;;;;;;;;;;5072157;28;20498;-75
2022/08/05 14:01:19;;;;;;;2.43;2.20;;;;;;;;;;5072068;28;20924;-75
2022/08/05 14:05:09;;;;;;;2.60;2.40;;;;;;;;;;5071418;28;20987;-75
2022/08/05 14:06:35;;;;;;;4.17;2.73;;;;;;;;;;5071674;28;20447;-75
2022/08/05 14:09:02;;;;;;;2.50;2.40;;;;;;;;;;5071831;28;20975;-75
2022/08/05 14:11:29;;;;;;;3.17;2.97;;;;;;;;;;5090207;28;20432;-74
2022/08/05 14:13:56;;;;;;;3.00;2.80;;;;;;;;;;5091705;28;20456;-76
2022/08/05 14:16:23;;;;;;;3.30;3.00;;;;;;;;;;5092057;28;20444;-75
2022/08/05 14:18:51;;;;;;;2.87;2.67;;;;;;;;;;5092282;28;20443;-75
2022/08/05 14:21:18;;;;;;;3.00;2.80;;;;;;;;;;5091821;28;20535;-76
2022/08/05 14:23:46;;;;;;;2.70;2.50;;;;;;;;;;5091719;28;20448;-76
2022/08/05 14:26:13;;;;;;;3.07;2.80;;;;;;;;;;5092207;28;20440;-75
2022/08/05 14:28:40;;;;;;;2.80;2.60;;;;;;;;;;5091954;28;20519;-75
2022/08/05 14:31:07;;;;;;;3.80;2.57;;;;;;;;;;5092260;28;20448;-75
2022/08/05 14:33:34;;;;;;;2.70;2.50;;;;;;;;;;5091846;28;20467;-75
2022/08/05 14:36:01;;;;;;;2.80;2.40;;;;;;;;;;5091904;28;20450;-76
2022/08/05 14:38:28;;;;;;;2.40;2.30;;;;;;;;;;5091795;28;20439;-75
2022/08/05 14:40:57;;;;;;;2.60;2.40;;;;;;;;;;5091858;28;20488;-74
2022/08/05 14:43:24;;;;;;;3.20;2.80;;;;;;;;;;5091393;28;20440;-77
2022/08/05 14:45:51;;;;;;;3.53;2.70;;;;;;;;;;5091216;28;20468;-74
2022/08/05 14:48:18;;;;;;;3.13;2.50;;;;;;;;;;5091783;28;20505;-75
2022/08/05 14:50:45;;;;;;;2.70;2.50;;;;;;;;;;5091703;28;20475;-75
2022/08/05 14:53:12;;;;;;;3.50;3.20;;;;;;;;;;5091446;28;20452;-76
2022/08/05 14:55:39;;;;;;;3.00;2.80;;;;;;;;;;5091411;28;20665;-75